sensor_id;sensor_type;location;lat;lon;timestamp;P1;durP1;ratioP1;P2;durP2;ratioP2
54191;SDS011;40101;53.002;6.488;2023-05-17T00:24:02;29.33;;;5.40;;
54191;SDS011;40101;53.002;6.488;2023-05-17T00:39:27;17.20;;;5.10;;
54191;SDS011;40101;53.002;6.488;2023-05-17T00:45:28;16.13;;;4.95;;
54191;SDS011;40101;53.002;6.488;2023-05-17T00:55:31;19.10;;;3.95;;
54191;SDS011;40101;53.002;6.488;2023-05-17T01:09:42;22.52;;;4.90;;
54191;SDS011;40101;53.002;6.488;2023-05-17T01:15:52;19.70;;;5.03;;
54191;SDS011;40101;53.002;6.488;2023-05-17T01:18:30;25.13;;;5.28;;
54191;SDS011;40101;53.002;6.488;2023-05-17T01:57:31;17.95;;;5.30;;
54191;SDS011;40101;53.002;6.488;2023-05-17T02:00:18;27.25;;;5.43;;
54191;SDS011;40101;53.002;6.488;2023-05-17T02:06:39;18.92;;;3.92;;
54191;SDS011;40101;53.002;6.488;2023-05-17T02:09:05;15.18;;;2.95;;
54191;SDS011;40101;53.002;6.488;2023-05-17T02:14:53;28.30;;;5.28;;
54191;SDS011;40101;53.002;6.488;2023-05-17T02:17:19;20.65;;;4.30;;
54191;SDS011;40101;53.002;6.488;2023-05-17T02:19:45;25.65;;;5.05;;
54191;SDS011;40101;53.002;6.488;2023-05-17T02:22:20;12.35;;;3.92;;
54191;SDS011;40101;53.002;6.488;2023-05-17T02:24:45;22.77;;;4.20;;
54191;SDS011;40101;53.002;6.488;2023-05-17T02:27:15;23.83;;;3.92;;
54191;SDS011;40101;53.002;6.488;2023-05-17T02:30:10;20.45;;;4.72;;
54191;SDS011;40101;53.002;6.488;2023-05-17T02:32:38;18.60;;;4.45;;
54191;SDS011;40101;53.002;6.488;2023-05-17T02:35:04;13.57;;;3.53;;
54191;SDS011;40101;53.002;6.488;2023-05-17T02:37:30;22.98;;;6.28;;
54191;SDS011;40101;53.002;6.488;2023-05-17T02:39:56;17.23;;;3.63;;
54191;SDS011;40101;53.002;6.488;2023-05-17T02:42:22;13.00;;;2.92;;
54191;SDS011;40101;53.002;6.488;2023-05-17T02:44:57;12.50;;;3.50;;
54191;SDS011;40101;53.002;6.488;2023-05-17T02:47:41;17.05;;;3.80;;
54191;SDS011;40101;53.002;6.488;2023-05-17T02:50:07;16.83;;;4.72;;
54191;SDS011;40101;53.002;6.488;2023-05-17T02:52:33;16.92;;;3.33;;
54191;SDS011;40101;53.002;6.488;2023-05-17T02:55:02;15.73;;;4.28;;
54191;SDS011;40101;53.002;6.488;2023-05-17T02:57:28;12.52;;;3.92;;
54191;SDS011;40101;53.002;6.488;2023-05-17T02:59:54;21.50;;;4.13;;
54191;SDS011;40101;53.002;6.488;2023-05-17T03:02:19;17.55;;;4.00;;
54191;SDS011;40101;53.002;6.488;2023-05-17T03:04:45;13.80;;;3.58;;
54191;SDS011;40101;53.002;6.488;2023-05-17T03:07:11;18.65;;;4.80;;
54191;SDS011;40101;53.002;6.488;2023-05-17T03:09:37;14.05;;;3.88;;
54191;SDS011;40101;53.002;6.488;2023-05-17T03:12:03;19.27;;;3.70;;
54191;SDS011;40101;53.002;6.488;2023-05-17T03:14:44;18.58;;;3.45;;
54191;SDS011;40101;53.002;6.488;2023-05-17T03:17:11;15.88;;;4.25;;
54191;SDS011;40101;53.002;6.488;2023-05-17T03:19:37;19.15;;;4.43;;
54191;SDS011;40101;53.002;6.488;2023-05-17T03:22:02;13.48;;;4.28;;
54191;SDS011;40101;53.002;6.488;2023-05-17T03:24:28;14.23;;;3.13;;
54191;SDS011;40101;53.002;6.488;2023-05-17T03:27:06;17.75;;;4.72;;
54191;SDS011;40101;53.002;6.488;2023-05-17T03:29:37;13.18;;;3.85;;
54191;SDS011;40101;53.002;6.488;2023-05-17T03:32:03;16.38;;;3.13;;
54191;SDS011;40101;53.002;6.488;2023-05-17T03:34:29;18.98;;;4.03;;
54191;SDS011;40101;53.002;6.488;2023-05-17T03:36:55;16.92;;;3.60;;
54191;SDS011;40101;53.002;6.488;2023-05-17T03:39:20;8.95;;;2.55;;
54191;SDS011;40101;53.002;6.488;2023-05-17T03:41:46;15.13;;;3.05;;
54191;SDS011;40101;53.002;6.488;2023-05-17T03:44:11;18.17;;;3.97;;
54191;SDS011;40101;53.002;6.488;2023-05-17T03:46:37;14.48;;;3.10;;
54191;SDS011;40101;53.002;6.488;2023-05-17T03:49:03;11.48;;;2.55;;
54191;SDS011;40101;53.002;6.488;2023-05-17T03:51:28;10.05;;;2.92;;
54191;SDS011;40101;53.002;6.488;2023-05-17T03:53:58;18.83;;;4.10;;
54191;SDS011;40101;53.002;6.488;2023-05-17T03:56:24;15.85;;;3.63;;
54191;SDS011;40101;53.002;6.488;2023-05-17T03:58:50;11.65;;;3.03;;
54191;SDS011;40101;53.002;6.488;2023-05-17T04:01:18;10.43;;;3.35;;
54191;SDS011;40101;53.002;6.488;2023-05-17T04:03:45;12.88;;;2.92;;
54191;SDS011;40101;53.002;6.488;2023-05-17T04:06:19;13.43;;;3.35;;
54191;SDS011;40101;53.002;6.488;2023-05-17T04:09:05;16.20;;;3.58;;
54191;SDS011;40101;53.002;6.488;2023-05-17T04:11:31;16.55;;;2.60;;
54191;SDS011;40101;53.002;6.488;2023-05-17T04:13:57;11.93;;;4.15;;
54191;SDS011;40101;53.002;6.488;2023-05-17T04:16:22;20.63;;;3.25;;
54191;SDS011;40101;53.002;6.488;2023-05-17T04:18:48;12.30;;;3.05;;
54191;SDS011;40101;53.002;6.488;2023-05-17T04:21:19;15.55;;;3.70;;
54191;SDS011;40101;53.002;6.488;2023-05-17T04:23:45;10.95;;;2.85;;
54191;SDS011;40101;53.002;6.488;2023-05-17T04:26:11;8.18;;;3.00;;
54191;SDS011;40101;53.002;6.488;2023-05-17T04:28:36;11.10;;;2.30;;
54191;SDS011;40101;53.002;6.488;2023-05-17T04:31:05;9.85;;;2.45;;
54191;SDS011;40101;53.002;6.488;2023-05-17T04:33:32;10.90;;;2.20;;
54191;SDS011;40101;53.002;6.488;2023-05-17T04:36:02;11.05;;;2.03;;
54191;SDS011;40101;53.002;6.488;2023-05-17T04:38:28;9.40;;;2.40;;
54191;SDS011;40101;53.002;6.488;2023-05-17T04:41:03;14.88;;;3.65;;
54191;SDS011;40101;53.002;6.488;2023-05-17T04:43:40;10.80;;;1.90;;
54191;SDS011;40101;53.002;6.488;2023-05-17T04:46:09;10.52;;;2.78;;
54191;SDS011;40101;53.002;6.488;2023-05-17T04:48:39;8.77;;;2.05;;
54191;SDS011;40101;53.002;6.488;2023-05-17T04:51:05;11.43;;;2.33;;
54191;SDS011;40101;53.002;6.488;2023-05-17T04:53:31;7.35;;;1.77;;
54191;SDS011;40101;53.002;6.488;2023-05-17T04:55:58;11.18;;;2.58;;
54191;SDS011;40101;53.002;6.488;2023-05-17T04:58:26;11.77;;;2.55;;
54191;SDS011;40101;53.002;6.488;2023-05-17T05:00:52;8.88;;;2.00;;
54191;SDS011;40101;53.002;6.488;2023-05-17T05:03:21;7.55;;;2.28;;
54191;SDS011;40101;53.002;6.488;2023-05-17T05:05:50;13.38;;;2.88;;
54191;SDS011;40101;53.002;6.488;2023-05-17T05:08:16;5.60;;;1.98;;
54191;SDS011;40101;53.002;6.488;2023-05-17T05:10:44;10.55;;;2.58;;
54191;SDS011;40101;53.002;6.488;2023-05-17T05:13:14;10.07;;;2.28;;
54191;SDS011;40101;53.002;6.488;2023-05-17T05:15:40;8.30;;;1.83;;
54191;SDS011;40101;53.002;6.488;2023-05-17T05:18:11;14.73;;;2.45;;
54191;SDS011;40101;53.002;6.488;2023-05-17T05:20:39;6.80;;;2.05;;
54191;SDS011;40101;53.002;6.488;2023-05-17T05:23:10;7.35;;;1.90;;
54191;SDS011;40101;53.002;6.488;2023-05-17T05:25:36;11.95;;;2.30;;
54191;SDS011;40101;53.002;6.488;2023-05-17T05:28:02;10.98;;;1.92;;
54191;SDS011;40101;53.002;6.488;2023-05-17T05:30:27;7.93;;;1.70;;
54191;SDS011;40101;53.002;6.488;2023-05-17T05:32:53;7.82;;;1.85;;
54191;SDS011;40101;53.002;6.488;2023-05-17T05:35:19;9.23;;;1.55;;
54191;SDS011;40101;53.002;6.488;2023-05-17T05:37:47;6.53;;;2.10;;
54191;SDS011;40101;53.002;6.488;2023-05-17T05:40:12;4.97;;;1.55;;
54191;SDS011;40101;53.002;6.488;2023-05-17T05:42:39;10.55;;;3.25;;
54191;SDS011;40101;53.002;6.488;2023-05-17T05:45:12;6.93;;;2.13;;
54191;SDS011;40101;53.002;6.488;2023-05-17T05:47:54;6.82;;;2.15;;
54191;SDS011;40101;53.002;6.488;2023-05-17T05:50:20;8.13;;;1.73;;
54191;SDS011;40101;53.002;6.488;2023-05-17T05:52:48;6.78;;;1.90;;
54191;SDS011;40101;53.002;6.488;2023-05-17T05:55:29;9.77;;;2.20;;
54191;SDS011;40101;53.002;6.488;2023-05-17T05:57:55;15.60;;;2.35;;
54191;SDS011;40101;53.002;6.488;2023-05-17T06:00:21;5.97;;;2.10;;
54191;SDS011;40101;53.002;6.488;2023-05-17T06:02:47;7.88;;;1.85;;
54191;SDS011;40101;53.002;6.488;2023-05-17T06:05:16;8.13;;;1.63;;
54191;SDS011;40101;53.002;6.488;2023-05-17T06:07:42;9.82;;;2.42;;
54191;SDS011;40101;53.002;6.488;2023-05-17T06:10:08;9.18;;;1.75;;
54191;SDS011;40101;53.002;6.488;2023-05-17T06:12:34;12.02;;;2.05;;
54191;SDS011;40101;53.002;6.488;2023-05-17T06:15:00;4.72;;;1.42;;
54191;SDS011;40101;53.002;6.488;2023-05-17T06:17:26;6.68;;;2.00;;
54191;SDS011;40101;53.002;6.488;2023-05-17T06:19:51;6.03;;;1.95;;
54191;SDS011;40101;53.002;6.488;2023-05-17T06:22:17;7.70;;;2.00;;
54191;SDS011;40101;53.002;6.488;2023-05-17T06:24:52;11.73;;;2.08;;
54191;SDS011;40101;53.002;6.488;2023-05-17T06:27:17;9.93;;;2.92;;
54191;SDS011;40101;53.002;6.488;2023-05-17T06:29:43;10.35;;;2.38;;
54191;SDS011;40101;53.002;6.488;2023-05-17T06:32:09;14.13;;;3.25;;
54191;SDS011;40101;53.002;6.488;2023-05-17T06:34:35;13.60;;;3.05;;
54191;SDS011;40101;53.002;6.488;2023-05-17T06:37:01;8.32;;;1.98;;
54191;SDS011;40101;53.002;6.488;2023-05-17T06:39:27;9.73;;;2.53;;
54191;SDS011;40101;53.002;6.488;2023-05-17T06:41:53;11.05;;;2.75;;
54191;SDS011;40101;53.002;6.488;2023-05-17T06:44:19;10.35;;;2.85;;
54191;SDS011;40101;53.002;6.488;2023-05-17T06:46:45;10.40;;;2.22;;
54191;SDS011;40101;53.002;6.488;2023-05-17T06:49:19;10.43;;;2.58;;
54191;SDS011;40101;53.002;6.488;2023-05-17T06:51:45;12.95;;;3.55;;
54191;SDS011;40101;53.002;6.488;2023-05-17T06:54:13;13.27;;;3.45;;
54191;SDS011;40101;53.002;6.488;2023-05-17T06:56:38;11.48;;;2.08;;
54191;SDS011;40101;53.002;6.488;2023-05-17T06:59:04;11.65;;;3.15;;
54191;SDS011;40101;53.002;6.488;2023-05-17T07:01:30;12.13;;;2.70;;
54191;SDS011;40101;53.002;6.488;2023-05-17T07:03:59;8.98;;;2.92;;
54191;SDS011;40101;53.002;6.488;2023-05-17T07:09:02;7.78;;;2.30;;
54191;SDS011;40101;53.002;6.488;2023-05-17T07:11:28;9.02;;;1.88;;
54191;SDS011;40101;53.002;6.488;2023-05-17T07:13:53;11.10;;;2.17;;
54191;SDS011;40101;53.002;6.488;2023-05-17T07:16:19;10.82;;;2.63;;
54191;SDS011;40101;53.002;6.488;2023-05-17T07:18:45;10.68;;;3.35;;
54191;SDS011;40101;53.002;6.488;2023-05-17T07:21:11;13.55;;;2.47;;
54191;SDS011;40101;53.002;6.488;2023-05-17T07:23:38;9.52;;;3.03;;
54191;SDS011;40101;53.002;6.488;2023-05-17T07:26:04;11.88;;;2.10;;
54191;SDS011;40101;53.002;6.488;2023-05-17T07:28:30;10.55;;;2.75;;
54191;SDS011;40101;53.002;6.488;2023-05-17T07:30:55;11.27;;;3.05;;
54191;SDS011;40101;53.002;6.488;2023-05-17T07:33:21;11.40;;;3.03;;
54191;SDS011;40101;53.002;6.488;2023-05-17T07:35:47;10.65;;;2.30;;
54191;SDS011;40101;53.002;6.488;2023-05-17T07:38:13;9.13;;;2.42;;
54191;SDS011;40101;53.002;6.488;2023-05-17T07:40:38;9.48;;;2.35;;
54191;SDS011;40101;53.002;6.488;2023-05-17T07:43:04;8.68;;;2.30;;
54191;SDS011;40101;53.002;6.488;2023-05-17T07:45:30;12.50;;;3.20;;
54191;SDS011;40101;53.002;6.488;2023-05-17T07:48:01;14.10;;;2.97;;
54191;SDS011;40101;53.002;6.488;2023-05-17T07:50:27;14.60;;;2.40;;
54191;SDS011;40101;53.002;6.488;2023-05-17T07:52:53;14.07;;;3.10;;
54191;SDS011;40101;53.002;6.488;2023-05-17T07:55:21;12.02;;;2.70;;
54191;SDS011;40101;53.002;6.488;2023-05-17T07:57:47;17.85;;;3.20;;
54191;SDS011;40101;53.002;6.488;2023-05-17T08:00:13;8.75;;;2.67;;
54191;SDS011;40101;53.002;6.488;2023-05-17T08:02:39;11.15;;;3.72;;
54191;SDS011;40101;53.002;6.488;2023-05-17T08:05:05;14.40;;;3.10;;
54191;SDS011;40101;53.002;6.488;2023-05-17T08:07:33;13.27;;;2.45;;
54191;SDS011;40101;53.002;6.488;2023-05-17T08:09:59;7.53;;;2.70;;
54191;SDS011;40101;53.002;6.488;2023-05-17T08:12:25;10.55;;;2.33;;
54191;SDS011;40101;53.002;6.488;2023-05-17T08:14:50;13.35;;;3.72;;
54191;SDS011;40101;53.002;6.488;2023-05-17T08:17:16;14.10;;;2.70;;
54191;SDS011;40101;53.002;6.488;2023-05-17T08:19:42;15.65;;;2.95;;
54191;SDS011;40101;53.002;6.488;2023-05-17T08:22:08;9.68;;;2.13;;
54191;SDS011;40101;53.002;6.488;2023-05-17T08:24:34;5.85;;;2.15;;
54191;SDS011;40101;53.002;6.488;2023-05-17T08:27:00;8.48;;;2.13;;
54191;SDS011;40101;53.002;6.488;2023-05-17T08:29:26;9.25;;;2.90;;
54191;SDS011;40101;53.002;6.488;2023-05-17T08:32:00;9.60;;;2.08;;
54191;SDS011;40101;53.002;6.488;2023-05-17T08:34:26;7.82;;;1.88;;
54191;SDS011;40101;53.002;6.488;2023-05-17T08:36:54;11.82;;;2.67;;
54191;SDS011;40101;53.002;6.488;2023-05-17T08:39:20;11.35;;;2.45;;
54191;SDS011;40101;53.002;6.488;2023-05-17T08:41:47;8.80;;;2.35;;
54191;SDS011;40101;53.002;6.488;2023-05-17T08:48:18;12.82;;;2.90;;
54191;SDS011;40101;53.002;6.488;2023-05-17T08:50:53;8.75;;;2.60;;
54191;SDS011;40101;53.002;6.488;2023-05-17T08:53:19;10.98;;;2.70;;
54191;SDS011;40101;53.002;6.488;2023-05-17T08:55:53;10.05;;;2.83;;
54191;SDS011;40101;53.002;6.488;2023-05-17T08:58:34;12.20;;;2.38;;
54191;SDS011;40101;53.002;6.488;2023-05-17T09:22:57;12.80;;;3.08;;
54191;SDS011;40101;53.002;6.488;2023-05-17T09:28:17;14.10;;;3.78;;
54191;SDS011;40101;53.002;6.488;2023-05-17T09:31:07;11.20;;;3.17;;
54191;SDS011;40101;53.002;6.488;2023-05-17T09:57:05;9.38;;;2.40;;
54191;SDS011;40101;53.002;6.488;2023-05-17T09:59:33;8.57;;;2.22;;
54191;SDS011;40101;53.002;6.488;2023-05-17T10:02:00;10.10;;;2.70;;
54191;SDS011;40101;53.002;6.488;2023-05-17T10:04:31;11.18;;;2.50;;
54191;SDS011;40101;53.002;6.488;2023-05-17T10:07:11;5.85;;;1.52;;
54191;SDS011;40101;53.002;6.488;2023-05-17T10:09:38;8.38;;;2.28;;
54191;SDS011;40101;53.002;6.488;2023-05-17T10:12:05;9.20;;;2.40;;
54191;SDS011;40101;53.002;6.488;2023-05-17T10:14:34;10.57;;;2.42;;
54191;SDS011;40101;53.002;6.488;2023-05-17T10:17:00;5.88;;;2.05;;
54191;SDS011;40101;53.002;6.488;2023-05-17T10:19:28;6.85;;;2.10;;
54191;SDS011;40101;53.002;6.488;2023-05-17T10:21:54;6.13;;;2.05;;
54191;SDS011;40101;53.002;6.488;2023-05-17T10:24:22;5.63;;;2.15;;
54191;SDS011;40101;53.002;6.488;2023-05-17T10:26:49;9.95;;;2.05;;
54191;SDS011;40101;53.002;6.488;2023-05-17T10:29:15;10.05;;;2.10;;
54191;SDS011;40101;53.002;6.488;2023-05-17T10:34:34;6.28;;;1.40;;
54191;SDS011;40101;53.002;6.488;2023-05-17T10:37:02;5.43;;;1.55;;
54191;SDS011;40101;53.002;6.488;2023-05-17T10:39:28;8.40;;;2.13;;
54191;SDS011;40101;53.002;6.488;2023-05-17T10:41:58;8.73;;;2.15;;
54191;SDS011;40101;53.002;6.488;2023-05-17T10:44:26;7.40;;;1.55;;
54191;SDS011;40101;53.002;6.488;2023-05-17T10:46:57;7.97;;;1.92;;
54191;SDS011;40101;53.002;6.488;2023-05-17T10:49:28;9.15;;;2.33;;
54191;SDS011;40101;53.002;6.488;2023-05-17T10:51:55;9.25;;;2.10;;
54191;SDS011;40101;53.002;6.488;2023-05-17T10:54:33;11.40;;;1.88;;
54191;SDS011;40101;53.002;6.488;2023-05-17T10:57:04;8.63;;;2.15;;
54191;SDS011;40101;53.002;6.488;2023-05-17T10:59:31;9.40;;;2.30;;
54191;SDS011;40101;53.002;6.488;2023-05-17T11:09:41;8.05;;;1.73;;
54191;SDS011;40101;53.002;6.488;2023-05-17T11:12:11;8.20;;;2.08;;
54191;SDS011;40101;53.002;6.488;2023-05-17T11:14:43;8.55;;;2.97;;
54191;SDS011;40101;53.002;6.488;2023-05-17T11:17:11;6.43;;;1.90;;
54191;SDS011;40101;53.002;6.488;2023-05-17T11:20:00;6.55;;;2.28;;
54191;SDS011;40101;53.002;6.488;2023-05-17T11:22:37;5.75;;;2.00;;
54191;SDS011;40101;53.002;6.488;2023-05-17T11:25:06;8.82;;;1.60;;
54191;SDS011;40101;53.002;6.488;2023-05-17T11:27:42;6.80;;;1.60;;
54191;SDS011;40101;53.002;6.488;2023-05-17T11:30:23;9.80;;;2.95;;
54191;SDS011;40101;53.002;6.488;2023-05-17T11:32:57;6.45;;;1.65;;
54191;SDS011;40101;53.002;6.488;2023-05-17T11:35:37;5.43;;;1.60;;
54191;SDS011;40101;53.002;6.488;2023-05-17T11:38:22;10.52;;;1.92;;
54191;SDS011;40101;53.002;6.488;2023-05-17T11:41:24;10.60;;;2.35;;
54191;SDS011;40101;53.002;6.488;2023-05-17T11:43:51;8.52;;;2.20;;
54191;SDS011;40101;53.002;6.488;2023-05-17T11:46:18;7.15;;;1.40;;
54191;SDS011;40101;53.002;6.488;2023-05-17T11:48:45;9.20;;;2.30;;
54191;SDS011;40101;53.002;6.488;2023-05-17T11:51:13;8.15;;;2.50;;
54191;SDS011;40101;53.002;6.488;2023-05-17T11:53:42;7.15;;;2.22;;
54191;SDS011;40101;53.002;6.488;2023-05-17T11:56:08;9.80;;;1.95;;
54191;SDS011;40101;53.002;6.488;2023-05-17T11:58:38;8.90;;;3.10;;
54191;SDS011;40101;53.002;6.488;2023-05-17T12:01:06;6.43;;;1.67;;
54191;SDS011;40101;53.002;6.488;2023-05-17T12:03:33;6.90;;;2.33;;
54191;SDS011;40101;53.002;6.488;2023-05-17T12:08:28;9.10;;;2.00;;
54191;SDS011;40101;53.002;6.488;2023-05-17T12:10:56;9.20;;;1.75;;
54191;SDS011;40101;53.002;6.488;2023-05-17T12:13:34;5.57;;;1.85;;
54191;SDS011;40101;53.002;6.488;2023-05-17T12:16:01;6.75;;;2.20;;
54191;SDS011;40101;53.002;6.488;2023-05-17T12:18:33;9.80;;;2.40;;
54191;SDS011;40101;53.002;6.488;2023-05-17T12:21:01;7.35;;;1.85;;
54191;SDS011;40101;53.002;6.488;2023-05-17T12:26:15;8.55;;;1.75;;
54191;SDS011;40101;53.002;6.488;2023-05-17T12:28:51;7.70;;;1.95;;
54191;SDS011;40101;53.002;6.488;2023-05-17T12:34:00;7.72;;;2.88;;
54191;SDS011;40101;53.002;6.488;2023-05-17T12:36:28;11.13;;;2.13;;
54191;SDS011;40101;53.002;6.488;2023-05-17T12:38:55;6.57;;;2.35;;
54191;SDS011;40101;53.002;6.488;2023-05-17T12:41:21;7.82;;;2.40;;
54191;SDS011;40101;53.002;6.488;2023-05-17T12:43:50;12.65;;;2.22;;
54191;SDS011;40101;53.002;6.488;2023-05-17T12:46:17;7.47;;;2.10;;
54191;SDS011;40101;53.002;6.488;2023-05-17T12:48:44;9.38;;;1.60;;
54191;SDS011;40101;53.002;6.488;2023-05-17T12:51:18;9.27;;;2.42;;
54191;SDS011;40101;53.002;6.488;2023-05-17T12:56:15;10.38;;;2.22;;
54191;SDS011;40101;53.002;6.488;2023-05-17T13:01:42;7.05;;;1.75;;
54191;SDS011;40101;53.002;6.488;2023-05-17T13:04:09;16.77;;;2.50;;
54191;SDS011;40101;53.002;6.488;2023-05-17T13:09:11;6.30;;;1.67;;
54191;SDS011;40101;53.002;6.488;2023-05-17T13:11:37;9.07;;;2.97;;
54191;SDS011;40101;53.002;6.488;2023-05-17T13:14:05;9.13;;;2.03;;
54191;SDS011;40101;53.002;6.488;2023-05-17T13:16:32;10.52;;;2.25;;
54191;SDS011;40101;53.002;6.488;2023-05-17T13:19:01;7.80;;;2.22;;
54191;SDS011;40101;53.002;6.488;2023-05-17T13:21:26;5.60;;;2.42;;
54191;SDS011;40101;53.002;6.488;2023-05-17T13:23:52;10.48;;;2.13;;
54191;SDS011;40101;53.002;6.488;2023-05-17T13:26:18;9.27;;;2.20;;
54191;SDS011;40101;53.002;6.488;2023-05-17T13:28:47;6.97;;;2.08;;
54191;SDS011;40101;53.002;6.488;2023-05-17T13:31:12;13.80;;;2.30;;
54191;SDS011;40101;53.002;6.488;2023-05-17T13:33:41;8.48;;;2.70;;
54191;SDS011;40101;53.002;6.488;2023-05-17T13:36:09;8.27;;;2.00;;
54191;SDS011;40101;53.002;6.488;2023-05-17T13:38:34;7.07;;;1.50;;
54191;SDS011;40101;53.002;6.488;2023-05-17T13:41:00;8.20;;;2.03;;
54191;SDS011;40101;53.002;6.488;2023-05-17T13:43:27;10.05;;;2.08;;
54191;SDS011;40101;53.002;6.488;2023-05-17T13:45:55;12.15;;;2.08;;
54191;SDS011;40101;53.002;6.488;2023-05-17T13:48:23;9.85;;;2.35;;
54191;SDS011;40101;53.002;6.488;2023-05-17T13:50:48;9.27;;;2.40;;
54191;SDS011;40101;53.002;6.488;2023-05-17T13:53:15;9.63;;;2.15;;
54191;SDS011;40101;53.002;6.488;2023-05-17T13:55:40;6.05;;;2.03;;
54191;SDS011;40101;53.002;6.488;2023-05-17T13:58:06;6.38;;;1.73;;
54191;SDS011;40101;53.002;6.488;2023-05-17T14:00:32;10.70;;;2.35;;
54191;SDS011;40101;53.002;6.488;2023-05-17T14:02:57;10.70;;;2.78;;
54191;SDS011;40101;53.002;6.488;2023-05-17T14:05:24;8.20;;;2.10;;
54191;SDS011;40101;53.002;6.488;2023-05-17T14:07:49;10.50;;;2.50;;
54191;SDS011;40101;53.002;6.488;2023-05-17T14:10:15;8.40;;;1.77;;
54191;SDS011;40101;53.002;6.488;2023-05-17T14:12:42;6.45;;;2.17;;
54191;SDS011;40101;53.002;6.488;2023-05-17T14:15:08;6.35;;;2.15;;
54191;SDS011;40101;53.002;6.488;2023-05-17T14:17:34;6.57;;;2.35;;
54191;SDS011;40101;53.002;6.488;2023-05-17T14:20:01;8.55;;;2.22;;
54191;SDS011;40101;53.002;6.488;2023-05-17T14:22:27;11.00;;;2.55;;
54191;SDS011;40101;53.002;6.488;2023-05-17T14:24:52;5.32;;;1.83;;
54191;SDS011;40101;53.002;6.488;2023-05-17T14:27:18;9.23;;;2.20;;
54191;SDS011;40101;53.002;6.488;2023-05-17T14:29:44;12.63;;;2.58;;
54191;SDS011;40101;53.002;6.488;2023-05-17T14:32:10;6.15;;;1.90;;
54191;SDS011;40101;53.002;6.488;2023-05-17T14:34:38;7.28;;;1.95;;
54191;SDS011;40101;53.002;6.488;2023-05-17T14:37:03;6.97;;;2.00;;
54191;SDS011;40101;53.002;6.488;2023-05-17T14:39:29;7.28;;;2.33;;
54191;SDS011;40101;53.002;6.488;2023-05-17T14:41:55;9.88;;;2.00;;
54191;SDS011;40101;53.002;6.488;2023-05-17T14:44:21;10.73;;;2.22;;
54191;SDS011;40101;53.002;6.488;2023-05-17T14:46:46;10.18;;;2.15;;
54191;SDS011;40101;53.002;6.488;2023-05-17T14:49:12;9.95;;;2.70;;
54191;SDS011;40101;53.002;6.488;2023-05-17T14:51:38;8.32;;;1.95;;
54191;SDS011;40101;53.002;6.488;2023-05-17T14:54:04;7.68;;;1.85;;
54191;SDS011;40101;53.002;6.488;2023-05-17T14:56:56;11.48;;;2.70;;
54191;SDS011;40101;53.002;6.488;2023-05-17T14:59:29;8.00;;;1.75;;
54191;SDS011;40101;53.002;6.488;2023-05-17T15:01:55;6.18;;;1.52;;
54191;SDS011;40101;53.002;6.488;2023-05-17T15:04:21;6.38;;;2.17;;
54191;SDS011;40101;53.002;6.488;2023-05-17T15:06:47;6.65;;;1.92;;
54191;SDS011;40101;53.002;6.488;2023-05-17T15:09:12;11.75;;;1.95;;
54191;SDS011;40101;53.002;6.488;2023-05-17T15:11:41;6.35;;;2.35;;
54191;SDS011;40101;53.002;6.488;2023-05-17T15:17:12;10.90;;;1.40;;
54191;SDS011;40101;53.002;6.488;2023-05-17T15:19:38;10.15;;;2.30;;
54191;SDS011;40101;53.002;6.488;2023-05-17T15:22:03;11.02;;;1.67;;
54191;SDS011;40101;53.002;6.488;2023-05-17T15:24:31;7.78;;;2.55;;
54191;SDS011;40101;53.002;6.488;2023-05-17T15:26:57;9.05;;;2.05;;
54191;SDS011;40101;53.002;6.488;2023-05-17T15:29:23;7.45;;;2.17;;
54191;SDS011;40101;53.002;6.488;2023-05-17T15:31:49;6.10;;;2.10;;
54191;SDS011;40101;53.002;6.488;2023-05-17T15:34:15;10.40;;;1.45;;
54191;SDS011;40101;53.002;6.488;2023-05-17T15:36:40;9.25;;;2.08;;
54191;SDS011;40101;53.002;6.488;2023-05-17T15:39:06;8.98;;;2.40;;
54191;SDS011;40101;53.002;6.488;2023-05-17T15:41:32;8.13;;;1.83;;
54191;SDS011;40101;53.002;6.488;2023-05-17T15:43:58;6.28;;;1.88;;
54191;SDS011;40101;53.002;6.488;2023-05-17T15:46:24;5.90;;;1.77;;
54191;SDS011;40101;53.002;6.488;2023-05-17T15:48:50;10.43;;;2.75;;
54191;SDS011;40101;53.002;6.488;2023-05-17T15:51:15;8.40;;;1.60;;
54191;SDS011;40101;53.002;6.488;2023-05-17T15:53:41;5.88;;;1.42;;
54191;SDS011;40101;53.002;6.488;2023-05-17T15:56:07;6.25;;;1.50;;
54191;SDS011;40101;53.002;6.488;2023-05-17T15:58:34;6.85;;;1.52;;
54191;SDS011;40101;53.002;6.488;2023-05-17T16:01:03;7.43;;;1.42;;
54191;SDS011;40101;53.002;6.488;2023-05-17T16:03:30;6.93;;;1.90;;
54191;SDS011;40101;53.002;6.488;2023-05-17T16:05:56;6.88;;;1.70;;
54191;SDS011;40101;53.002;6.488;2023-05-17T16:08:22;7.47;;;2.13;;
54191;SDS011;40101;53.002;6.488;2023-05-17T16:10:48;6.93;;;2.10;;
54191;SDS011;40101;53.002;6.488;2023-05-17T16:13:13;6.93;;;2.10;;
54191;SDS011;40101;53.002;6.488;2023-05-17T16:15:39;8.70;;;1.70;;
54191;SDS011;40101;53.002;6.488;2023-05-17T16:18:05;4.50;;;2.00;;
54191;SDS011;40101;53.002;6.488;2023-05-17T16:20:32;7.88;;;1.70;;
54191;SDS011;40101;53.002;6.488;2023-05-17T16:22:58;7.22;;;1.67;;
54191;SDS011;40101;53.002;6.488;2023-05-17T16:25:23;7.72;;;1.60;;
54191;SDS011;40101;53.002;6.488;2023-05-17T16:27:50;9.48;;;2.65;;
54191;SDS011;40101;53.002;6.488;2023-05-17T16:30:16;7.65;;;1.30;;
54191;SDS011;40101;53.002;6.488;2023-05-17T16:32:43;5.45;;;1.80;;
54191;SDS011;40101;53.002;6.488;2023-05-17T16:35:10;5.88;;;1.70;;
54191;SDS011;40101;53.002;6.488;2023-05-17T16:37:36;6.13;;;2.00;;
54191;SDS011;40101;53.002;6.488;2023-05-17T16:55:21;5.13;;;1.55;;
54191;SDS011;40101;53.002;6.488;2023-05-17T17:01:27;4.40;;;1.60;;
54191;SDS011;40101;53.002;6.488;2023-05-17T17:03:57;8.23;;;2.00;;
54191;SDS011;40101;53.002;6.488;2023-05-17T17:06:23;8.20;;;2.03;;
54191;SDS011;40101;53.002;6.488;2023-05-17T17:08:49;9.77;;;2.67;;
54191;SDS011;40101;53.002;6.488;2023-05-17T17:11:17;5.97;;;1.70;;
54191;SDS011;40101;53.002;6.488;2023-05-17T17:16:56;4.57;;;2.10;;
54191;SDS011;40101;53.002;6.488;2023-05-17T17:22:36;8.40;;;1.90;;
54191;SDS011;40101;53.002;6.488;2023-05-17T17:25:16;5.60;;;1.65;;
54191;SDS011;40101;53.002;6.488;2023-05-17T17:27:43;3.92;;;1.65;;
54191;SDS011;40101;53.002;6.488;2023-05-17T17:30:10;7.03;;;1.85;;
54191;SDS011;40101;53.002;6.488;2023-05-17T17:32:39;5.40;;;1.60;;
54191;SDS011;40101;53.002;6.488;2023-05-17T17:35:08;6.18;;;1.83;;
54191;SDS011;40101;53.002;6.488;2023-05-17T17:37:38;5.47;;;1.75;;
54191;SDS011;40101;53.002;6.488;2023-05-17T17:40:04;5.57;;;1.55;;
54191;SDS011;40101;53.002;6.488;2023-05-17T17:42:47;7.65;;;1.67;;
54191;SDS011;40101;53.002;6.488;2023-05-17T17:49:10;5.40;;;1.38;;
54191;SDS011;40101;53.002;6.488;2023-05-17T17:51:36;6.68;;;1.60;;
54191;SDS011;40101;53.002;6.488;2023-05-17T17:54:04;7.60;;;1.75;;
54191;SDS011;40101;53.002;6.488;2023-05-17T17:56:36;6.70;;;1.50;;
54191;SDS011;40101;53.002;6.488;2023-05-17T17:59:02;10.70;;;2.22;;
54191;SDS011;40101;53.002;6.488;2023-05-17T18:01:27;5.22;;;1.30;;
54191;SDS011;40101;53.002;6.488;2023-05-17T18:03:59;5.30;;;1.95;;
54191;SDS011;40101;53.002;6.488;2023-05-17T18:06:31;7.13;;;1.85;;
54191;SDS011;40101;53.002;6.488;2023-05-17T18:12:20;3.88;;;1.70;;
54191;SDS011;40101;53.002;6.488;2023-05-17T18:15:00;6.63;;;2.00;;
54191;SDS011;40101;53.002;6.488;2023-05-17T18:17:26;6.68;;;1.58;;
54191;SDS011;40101;53.002;6.488;2023-05-17T18:25:41;6.88;;;2.30;;
54191;SDS011;40101;53.002;6.488;2023-05-17T18:28:09;9.35;;;2.60;;
54191;SDS011;40101;53.002;6.488;2023-05-17T18:30:35;7.00;;;3.00;;
54191;SDS011;40101;53.002;6.488;2023-05-17T18:36:25;6.18;;;1.80;;
54191;SDS011;40101;53.002;6.488;2023-05-17T18:45:21;6.38;;;1.63;;
54191;SDS011;40101;53.002;6.488;2023-05-17T18:48:07;5.82;;;2.05;;